sensor_id;sensor_type;location;lat;lon;timestamp;P1;durP1;ratioP1;P2;durP2;ratioP2
18302;SDS011;9277;37.980;23.748;2023-02-08T00:02:00;2.00;;;1.75;;
18302;SDS011;9277;37.980;23.748;2023-02-08T00:04:27;1.80;;;1.70;;
18302;SDS011;9277;37.980;23.748;2023-02-08T00:06:54;4.97;;;1.83;;
18302;SDS011;9277;37.980;23.748;2023-02-08T00:09:22;1.40;;;1.30;;
18302;SDS011;9277;37.980;23.748;2023-02-08T00:11:49;2.00;;;1.60;;
18302;SDS011;9277;37.980;23.748;2023-02-08T00:14:16;2.80;;;2.00;;
18302;SDS011;9277;37.980;23.748;2023-02-08T00:16:43;2.13;;;1.73;;
18302;SDS011;9277;37.980;23.748;2023-02-08T00:19:10;3.78;;;1.70;;
18302;SDS011;9277;37.980;23.748;2023-02-08T00:21:36;1.75;;;1.48;;
18302;SDS011;9277;37.980;23.748;2023-02-08T00:24:03;1.70;;;1.60;;
18302;SDS011;9277;37.980;23.748;2023-02-08T00:26:32;2.53;;;1.88;;
18302;SDS011;9277;37.980;23.748;2023-02-08T00:28:59;3.55;;;1.88;;
18302;SDS011;9277;37.980;23.748;2023-02-08T00:31:25;2.05;;;1.80;;
18302;SDS011;9277;37.980;23.748;2023-02-08T00:33:52;2.22;;;1.70;;
18302;SDS011;9277;37.980;23.748;2023-02-08T00:36:19;3.28;;;1.90;;
18302;SDS011;9277;37.980;23.748;2023-02-08T00:38:46;2.10;;;1.83;;
18302;SDS011;9277;37.980;23.748;2023-02-08T00:41:13;5.25;;;2.05;;
18302;SDS011;9277;37.980;23.748;2023-02-08T00:43:41;3.53;;;1.85;;
18302;SDS011;9277;37.980;23.748;2023-02-08T00:46:08;2.42;;;1.70;;
18302;SDS011;9277;37.980;23.748;2023-02-08T00:48:35;2.75;;;1.88;;
18302;SDS011;9277;37.980;23.748;2023-02-08T00:51:03;1.70;;;1.60;;
18302;SDS011;9277;37.980;23.748;2023-02-08T00:53:30;2.97;;;1.77;;
18302;SDS011;9277;37.980;23.748;2023-02-08T00:55:57;2.22;;;1.83;;
18302;SDS011;9277;37.980;23.748;2023-02-08T00:58:23;2.72;;;1.95;;
18302;SDS011;9277;37.980;23.748;2023-02-08T01:00:52;2.17;;;1.80;;
18302;SDS011;9277;37.980;23.748;2023-02-08T01:03:19;2.70;;;1.50;;
18302;SDS011;9277;37.980;23.748;2023-02-08T01:05:46;1.80;;;1.70;;
18302;SDS011;9277;37.980;23.748;2023-02-08T01:08:13;1.90;;;1.70;;
18302;SDS011;9277;37.980;23.748;2023-02-08T01:10:39;1.88;;;1.35;;
18302;SDS011;9277;37.980;23.748;2023-02-08T01:13:06;1.98;;;1.77;;
18302;SDS011;9277;37.980;23.748;2023-02-08T01:15:34;2.25;;;1.98;;
18302;SDS011;9277;37.980;23.748;2023-02-08T01:18:02;2.75;;;1.83;;
18302;SDS011;9277;37.980;23.748;2023-02-08T01:20:29;6.63;;;2.00;;
18302;SDS011;9277;37.980;23.748;2023-02-08T01:22:56;3.22;;;1.50;;
18302;SDS011;9277;37.980;23.748;2023-02-08T01:25:22;5.18;;;2.08;;
18302;SDS011;9277;37.980;23.748;2023-02-08T01:27:49;1.88;;;1.60;;
18302;SDS011;9277;37.980;23.748;2023-02-08T01:30:16;5.18;;;1.92;;
18302;SDS011;9277;37.980;23.748;2023-02-08T01:32:43;2.53;;;1.73;;
18302;SDS011;9277;37.980;23.748;2023-02-08T01:35:11;1.98;;;1.75;;
18302;SDS011;9277;37.980;23.748;2023-02-08T01:37:38;1.65;;;1.55;;
18302;SDS011;9277;37.980;23.748;2023-02-08T01:40:05;4.30;;;2.08;;
18302;SDS011;9277;37.980;23.748;2023-02-08T01:42:32;2.92;;;1.90;;
18302;SDS011;9277;37.980;23.748;2023-02-08T01:47:54;1.75;;;1.65;;
18302;SDS011;9277;37.980;23.748;2023-02-08T01:50:24;2.70;;;1.65;;
18302;SDS011;9277;37.980;23.748;2023-02-08T01:52:54;1.80;;;1.70;;
18302;SDS011;9277;37.980;23.748;2023-02-08T01:55:22;2.35;;;1.75;;
18302;SDS011;9277;37.980;23.748;2023-02-08T01:57:50;3.17;;;1.67;;
18302;SDS011;9277;37.980;23.748;2023-02-08T02:00:18;4.57;;;1.60;;
18302;SDS011;9277;37.980;23.748;2023-02-08T02:02:46;4.22;;;1.75;;
18302;SDS011;9277;37.980;23.748;2023-02-08T02:05:13;2.05;;;1.73;;
18302;SDS011;9277;37.980;23.748;2023-02-08T02:07:43;1.42;;;1.35;;
18302;SDS011;9277;37.980;23.748;2023-02-08T02:10:11;7.15;;;2.03;;
18302;SDS011;9277;37.980;23.748;2023-02-08T02:12:40;2.38;;;1.80;;
18302;SDS011;9277;37.980;23.748;2023-02-08T02:15:07;3.20;;;1.45;;
18302;SDS011;9277;37.980;23.748;2023-02-08T02:17:34;2.30;;;1.70;;
18302;SDS011;9277;37.980;23.748;2023-02-08T02:20:03;3.63;;;2.08;;
18302;SDS011;9277;37.980;23.748;2023-02-08T02:25:24;3.60;;;1.55;;
18302;SDS011;9277;37.980;23.748;2023-02-08T02:28:04;1.83;;;1.73;;
18302;SDS011;9277;37.980;23.748;2023-02-08T02:30:41;1.70;;;1.55;;
18302;SDS011;9277;37.980;23.748;2023-02-08T02:33:18;3.47;;;2.10;;
18302;SDS011;9277;37.980;23.748;2023-02-08T02:35:51;1.92;;;1.80;;
18302;SDS011;9277;37.980;23.748;2023-02-08T02:38:20;3.00;;;1.83;;
18302;SDS011;9277;37.980;23.748;2023-02-08T02:40:54;6.55;;;1.85;;
18302;SDS011;9277;37.980;23.748;2023-02-08T02:43:25;2.55;;;1.35;;
18302;SDS011;9277;37.980;23.748;2023-02-08T02:46:13;4.65;;;1.75;;
18302;SDS011;9277;37.980;23.748;2023-02-08T02:48:46;1.80;;;1.70;;
18302;SDS011;9277;37.980;23.748;2023-02-08T02:51:14;3.00;;;1.52;;
18302;SDS011;9277;37.980;23.748;2023-02-08T02:53:46;4.53;;;1.88;;
18302;SDS011;9277;37.980;23.748;2023-02-08T02:56:14;3.45;;;1.55;;
18302;SDS011;9277;37.980;23.748;2023-02-08T02:58:43;4.50;;;2.05;;
18302;SDS011;9277;37.980;23.748;2023-02-08T03:01:10;2.17;;;1.95;;
18302;SDS011;9277;37.980;23.748;2023-02-08T03:03:37;2.60;;;1.90;;
18302;SDS011;9277;37.980;23.748;2023-02-08T03:06:07;3.13;;;1.83;;
18302;SDS011;9277;37.980;23.748;2023-02-08T03:08:49;2.83;;;1.65;;
18302;SDS011;9277;37.980;23.748;2023-02-08T03:11:19;3.45;;;1.70;;
18302;SDS011;9277;37.980;23.748;2023-02-08T03:16:31;2.35;;;1.45;;
18302;SDS011;9277;37.980;23.748;2023-02-08T03:19:03;1.83;;;1.50;;
18302;SDS011;9277;37.980;23.748;2023-02-08T03:21:35;2.22;;;1.52;;
18302;SDS011;9277;37.980;23.748;2023-02-08T03:24:05;2.83;;;1.50;;
18302;SDS011;9277;37.980;23.748;2023-02-08T03:26:34;1.80;;;1.58;;
18302;SDS011;9277;37.980;23.748;2023-02-08T03:29:02;3.33;;;2.20;;
18302;SDS011;9277;37.980;23.748;2023-02-08T03:31:37;1.55;;;1.55;;
18302;SDS011;9277;37.980;23.748;2023-02-08T03:34:05;2.05;;;1.50;;
18302;SDS011;9277;37.980;23.748;2023-02-08T03:36:35;1.60;;;1.35;;
18302;SDS011;9277;37.980;23.748;2023-02-08T03:39:04;1.90;;;1.40;;
18302;SDS011;9277;37.980;23.748;2023-02-08T03:41:33;1.70;;;1.60;;
18302;SDS011;9277;37.980;23.748;2023-02-08T03:44:02;2.45;;;1.73;;
18302;SDS011;9277;37.980;23.748;2023-02-08T03:46:30;1.23;;;1.23;;
18302;SDS011;9277;37.980;23.748;2023-02-08T03:49:01;3.50;;;2.10;;
18302;SDS011;9277;37.980;23.748;2023-02-08T03:51:28;2.13;;;1.48;;
18302;SDS011;9277;37.980;23.748;2023-02-08T03:53:57;1.67;;;1.38;;
18302;SDS011;9277;37.980;23.748;2023-02-08T03:56:29;2.50;;;1.10;;
18302;SDS011;9277;37.980;23.748;2023-02-08T03:59:00;1.00;;;1.00;;
18302;SDS011;9277;37.980;23.748;2023-02-08T04:01:28;1.15;;;1.15;;
18302;SDS011;9277;37.980;23.748;2023-02-08T04:03:56;5.05;;;1.40;;
18302;SDS011;9277;37.980;23.748;2023-02-08T04:06:23;1.52;;;1.20;;
18302;SDS011;9277;37.980;23.748;2023-02-08T04:08:50;2.17;;;1.33;;
18302;SDS011;9277;37.980;23.748;2023-02-08T04:11:18;1.92;;;1.83;;
18302;SDS011;9277;37.980;23.748;2023-02-08T04:13:45;1.50;;;1.20;;
18302;SDS011;9277;37.980;23.748;2023-02-08T04:16:12;1.48;;;1.30;;
18302;SDS011;9277;37.980;23.748;2023-02-08T04:18:38;1.92;;;1.25;;
18302;SDS011;9277;37.980;23.748;2023-02-08T04:21:05;1.98;;;1.25;;
18302;SDS011;9277;37.980;23.748;2023-02-08T04:23:32;2.13;;;1.40;;
18302;SDS011;9277;37.980;23.748;2023-02-08T04:25:58;2.83;;;1.17;;
18302;SDS011;9277;37.980;23.748;2023-02-08T04:28:27;1.85;;;1.40;;
18302;SDS011;9277;37.980;23.748;2023-02-08T04:30:53;1.50;;;1.40;;
18302;SDS011;9277;37.980;23.748;2023-02-08T04:33:21;1.58;;;1.48;;
18302;SDS011;9277;37.980;23.748;2023-02-08T04:35:48;1.35;;;1.25;;
18302;SDS011;9277;37.980;23.748;2023-02-08T04:38:15;1.83;;;1.13;;
18302;SDS011;9277;37.980;23.748;2023-02-08T04:40:42;7.05;;;1.65;;
18302;SDS011;9277;37.980;23.748;2023-02-08T04:43:09;1.63;;;1.35;;
18302;SDS011;9277;37.980;23.748;2023-02-08T04:45:37;3.70;;;1.77;;
18302;SDS011;9277;37.980;23.748;2023-02-08T04:48:04;1.63;;;1.30;;
18302;SDS011;9277;37.980;23.748;2023-02-08T04:50:31;1.38;;;1.27;;
18302;SDS011;9277;37.980;23.748;2023-02-08T04:52:59;1.52;;;1.42;;
18302;SDS011;9277;37.980;23.748;2023-02-08T04:55:26;1.75;;;1.27;;
18302;SDS011;9277;37.980;23.748;2023-02-08T04:57:52;1.60;;;1.48;;
18302;SDS011;9277;37.980;23.748;2023-02-08T05:00:19;1.20;;;1.10;;
18302;SDS011;9277;37.980;23.748;2023-02-08T05:02:49;2.03;;;1.30;;
18302;SDS011;9277;37.980;23.748;2023-02-08T05:05:17;1.63;;;1.40;;
18302;SDS011;9277;37.980;23.748;2023-02-08T05:07:44;1.58;;;1.45;;
18302;SDS011;9277;37.980;23.748;2023-02-08T05:10:11;5.80;;;1.38;;
18302;SDS011;9277;37.980;23.748;2023-02-08T05:12:37;5.20;;;1.70;;
18302;SDS011;9277;37.980;23.748;2023-02-08T05:15:04;1.17;;;1.17;;
18302;SDS011;9277;37.980;23.748;2023-02-08T05:17:31;2.65;;;1.33;;
18302;SDS011;9277;37.980;23.748;2023-02-08T05:19:59;2.63;;;1.48;;
18302;SDS011;9277;37.980;23.748;2023-02-08T05:22:26;1.60;;;1.40;;
18302;SDS011;9277;37.980;23.748;2023-02-08T05:24:52;1.48;;;1.38;;
18302;SDS011;9277;37.980;23.748;2023-02-08T05:27:19;2.15;;;1.80;;
18302;SDS011;9277;37.980;23.748;2023-02-08T05:29:46;1.90;;;1.38;;
18302;SDS011;9277;37.980;23.748;2023-02-08T05:32:13;1.50;;;1.40;;
18302;SDS011;9277;37.980;23.748;2023-02-08T05:34:39;3.30;;;1.85;;
18302;SDS011;9277;37.980;23.748;2023-02-08T05:37:08;6.63;;;1.67;;
18302;SDS011;9277;37.980;23.748;2023-02-08T05:39:35;1.92;;;1.40;;
18302;SDS011;9277;37.980;23.748;2023-02-08T05:42:02;1.42;;;1.15;;
18302;SDS011;9277;37.980;23.748;2023-02-08T05:44:28;2.60;;;1.48;;
18302;SDS011;9277;37.980;23.748;2023-02-08T05:46:55;1.38;;;1.27;;
18302;SDS011;9277;37.980;23.748;2023-02-08T05:49:22;1.02;;;1.02;;
18302;SDS011;9277;37.980;23.748;2023-02-08T05:51:49;1.70;;;1.60;;
18302;SDS011;9277;37.980;23.748;2023-02-08T05:54:17;3.17;;;1.25;;
18302;SDS011;9277;37.980;23.748;2023-02-08T05:56:44;6.43;;;1.67;;
18302;SDS011;9277;37.980;23.748;2023-02-08T05:59:11;2.15;;;1.52;;
18302;SDS011;9277;37.980;23.748;2023-02-08T06:01:38;5.13;;;1.73;;
18302;SDS011;9277;37.980;23.748;2023-02-08T06:04:04;2.70;;;1.60;;
18302;SDS011;9277;37.980;23.748;2023-02-08T06:06:31;2.13;;;1.90;;
18302;SDS011;9277;37.980;23.748;2023-02-08T06:08:58;4.20;;;1.70;;
18302;SDS011;9277;37.980;23.748;2023-02-08T06:11:26;1.67;;;1.52;;
18302;SDS011;9277;37.980;23.748;2023-02-08T06:13:53;1.85;;;1.42;;
18302;SDS011;9277;37.980;23.748;2023-02-08T06:16:20;2.92;;;1.73;;
18302;SDS011;9277;37.980;23.748;2023-02-08T06:18:46;5.13;;;1.52;;
18302;SDS011;9277;37.980;23.748;2023-02-08T06:21:13;2.65;;;1.67;;
18302;SDS011;9277;37.980;23.748;2023-02-08T06:23:40;1.77;;;1.48;;
18302;SDS011;9277;37.980;23.748;2023-02-08T06:26:06;1.63;;;1.52;;
18302;SDS011;9277;37.980;23.748;2023-02-08T06:28:35;1.60;;;1.45;;
18302;SDS011;9277;37.980;23.748;2023-02-08T06:31:01;3.45;;;1.70;;
18302;SDS011;9277;37.980;23.748;2023-02-08T06:33:28;3.72;;;1.70;;
18302;SDS011;9277;37.980;23.748;2023-02-08T06:35:55;1.83;;;1.67;;
18302;SDS011;9277;37.980;23.748;2023-02-08T06:38:22;3.10;;;2.08;;
18302;SDS011;9277;37.980;23.748;2023-02-08T06:40:49;3.08;;;1.90;;
18302;SDS011;9277;37.980;23.748;2023-02-08T06:43:16;2.33;;;1.52;;
18302;SDS011;9277;37.980;23.748;2023-02-08T06:45:44;2.78;;;2.05;;
18302;SDS011;9277;37.980;23.748;2023-02-08T06:48:11;4.22;;;1.58;;
18302;SDS011;9277;37.980;23.748;2023-02-08T06:50:38;2.75;;;2.00;;
18302;SDS011;9277;37.980;23.748;2023-02-08T06:53:05;2.58;;;2.00;;
18302;SDS011;9277;37.980;23.748;2023-02-08T06:55:31;3.05;;;1.60;;
18302;SDS011;9277;37.980;23.748;2023-02-08T06:58:01;2.45;;;1.50;;
18302;SDS011;9277;37.980;23.748;2023-02-08T07:00:28;1.33;;;1.33;;
18302;SDS011;9277;37.980;23.748;2023-02-08T07:02:56;3.40;;;1.45;;
18302;SDS011;9277;37.980;23.748;2023-02-08T07:05:24;2.45;;;1.40;;
18302;SDS011;9277;37.980;23.748;2023-02-08T07:07:51;1.23;;;1.15;;
18302;SDS011;9277;37.980;23.748;2023-02-08T07:10:18;4.47;;;1.88;;
18302;SDS011;9277;37.980;23.748;2023-02-08T07:12:45;2.05;;;1.48;;
18302;SDS011;9277;37.980;23.748;2023-02-08T07:15:12;3.65;;;1.63;;
18302;SDS011;9277;37.980;23.748;2023-02-08T07:17:38;1.85;;;1.75;;
18302;SDS011;9277;37.980;23.748;2023-02-08T07:20:08;2.45;;;1.90;;
18302;SDS011;9277;37.980;23.748;2023-02-08T07:22:35;5.30;;;1.60;;
18302;SDS011;9277;37.980;23.748;2023-02-08T07:25:02;1.63;;;1.50;;
18302;SDS011;9277;37.980;23.748;2023-02-08T07:27:29;5.35;;;1.90;;
18302;SDS011;9277;37.980;23.748;2023-02-08T07:29:56;1.60;;;1.50;;
18302;SDS011;9277;37.980;23.748;2023-02-08T07:32:23;4.20;;;1.80;;
18302;SDS011;9277;37.980;23.748;2023-02-08T07:34:51;1.75;;;1.65;;
18302;SDS011;9277;37.980;23.748;2023-02-08T07:37:20;2.50;;;1.63;;
18302;SDS011;9277;37.980;23.748;2023-02-08T07:39:48;3.53;;;1.90;;
18302;SDS011;9277;37.980;23.748;2023-02-08T07:42:16;1.85;;;1.65;;
18302;SDS011;9277;37.980;23.748;2023-02-08T07:44:42;2.13;;;1.88;;
18302;SDS011;9277;37.980;23.748;2023-02-08T07:47:09;2.47;;;2.03;;
18302;SDS011;9277;37.980;23.748;2023-02-08T07:49:36;1.70;;;1.60;;
18302;SDS011;9277;37.980;23.748;2023-02-08T07:52:03;2.65;;;1.80;;
18302;SDS011;9277;37.980;23.748;2023-02-08T07:54:31;3.05;;;1.77;;
18302;SDS011;9277;37.980;23.748;2023-02-08T07:57:01;2.30;;;1.77;;
18302;SDS011;9277;37.980;23.748;2023-02-08T07:59:28;6.07;;;2.65;;
18302;SDS011;9277;37.980;23.748;2023-02-08T08:01:55;1.60;;;1.50;;
18302;SDS011;9277;37.980;23.748;2023-02-08T08:04:21;1.58;;;1.48;;
18302;SDS011;9277;37.980;23.748;2023-02-08T08:06:48;2.28;;;1.70;;
18302;SDS011;9277;37.980;23.748;2023-02-08T08:09:15;1.90;;;1.60;;
18302;SDS011;9277;37.980;23.748;2023-02-08T08:11:47;1.45;;;1.40;;
18302;SDS011;9277;37.980;23.748;2023-02-08T08:14:14;1.50;;;1.40;;
18302;SDS011;9277;37.980;23.748;2023-02-08T08:16:41;2.05;;;1.60;;
18302;SDS011;9277;37.980;23.748;2023-02-08T08:19:08;4.50;;;1.60;;
18302;SDS011;9277;37.980;23.748;2023-02-08T08:21:35;1.23;;;1.20;;
18302;SDS011;9277;37.980;23.748;2023-02-08T08:24:02;1.23;;;1.23;;
18302;SDS011;9277;37.980;23.748;2023-02-08T08:29:17;6.15;;;1.63;;
18302;SDS011;9277;37.980;23.748;2023-02-08T08:31:44;1.95;;;1.50;;
18302;SDS011;9277;37.980;23.748;2023-02-08T08:34:11;1.30;;;1.20;;
18302;SDS011;9277;37.980;23.748;2023-02-08T08:36:38;1.67;;;1.50;;
18302;SDS011;9277;37.980;23.748;2023-02-08T08:39:05;1.67;;;1.58;;
18302;SDS011;9277;37.980;23.748;2023-02-08T08:41:32;2.75;;;1.90;;
18302;SDS011;9277;37.980;23.748;2023-02-08T08:44:00;2.40;;;1.73;;
18302;SDS011;9277;37.980;23.748;2023-02-08T08:46:28;2.85;;;1.95;;
18302;SDS011;9277;37.980;23.748;2023-02-08T08:48:55;2.45;;;1.77;;
18302;SDS011;9277;37.980;23.748;2023-02-08T08:51:21;3.10;;;1.95;;
18302;SDS011;9277;37.980;23.748;2023-02-08T08:53:50;2.95;;;1.90;;
18302;SDS011;9277;37.980;23.748;2023-02-08T08:56:31;4.68;;;1.83;;
18302;SDS011;9277;37.980;23.748;2023-02-08T08:58:59;6.00;;;2.10;;
18302;SDS011;9277;37.980;23.748;2023-02-08T09:01:29;4.63;;;2.15;;
18302;SDS011;9277;37.980;23.748;2023-02-08T09:03:56;4.40;;;1.60;;
18302;SDS011;9277;37.980;23.748;2023-02-08T09:06:23;3.65;;;2.17;;
18302;SDS011;9277;37.980;23.748;2023-02-08T09:08:50;3.33;;;1.73;;
18302;SDS011;9277;37.980;23.748;2023-02-08T09:11:17;1.88;;;1.65;;
18302;SDS011;9277;37.980;23.748;2023-02-08T09:13:44;3.92;;;1.85;;
18302;SDS011;9277;37.980;23.748;2023-02-08T09:16:11;1.58;;;1.48;;
18302;SDS011;9277;37.980;23.748;2023-02-08T09:18:40;3.15;;;1.63;;
18302;SDS011;9277;37.980;23.748;2023-02-08T09:21:08;2.58;;;2.38;;
18302;SDS011;9277;37.980;23.748;2023-02-08T09:23:35;4.10;;;1.90;;
18302;SDS011;9277;37.980;23.748;2023-02-08T09:26:02;3.20;;;1.90;;
18302;SDS011;9277;37.980;23.748;2023-02-08T09:28:29;2.83;;;2.17;;
18302;SDS011;9277;37.980;23.748;2023-02-08T09:30:56;1.80;;;1.65;;
18302;SDS011;9277;37.980;23.748;2023-02-08T09:33:28;3.30;;;2.28;;
18302;SDS011;9277;37.980;23.748;2023-02-08T09:35:57;7.25;;;1.90;;
18302;SDS011;9277;37.980;23.748;2023-02-08T09:38:24;4.65;;;1.80;;
18302;SDS011;9277;37.980;23.748;2023-02-08T09:40:53;4.55;;;1.88;;
18302;SDS011;9277;37.980;23.748;2023-02-08T09:43:31;2.50;;;2.30;;
18302;SDS011;9277;37.980;23.748;2023-02-08T09:46:02;3.10;;;2.10;;
18302;SDS011;9277;37.980;23.748;2023-02-08T09:48:30;2.35;;;2.08;;
18302;SDS011;9277;37.980;23.748;2023-02-08T09:51:02;5.68;;;2.50;;
18302;SDS011;9277;37.980;23.748;2023-02-08T09:53:30;4.28;;;2.30;;
18302;SDS011;9277;37.980;23.748;2023-02-08T09:56:00;4.25;;;2.42;;
18302;SDS011;9277;37.980;23.748;2023-02-08T09:58:29;2.45;;;1.98;;
18302;SDS011;9277;37.980;23.748;2023-02-08T10:01:01;3.45;;;1.90;;
18302;SDS011;9277;37.980;23.748;2023-02-08T10:03:30;3.05;;;2.03;;
18302;SDS011;9277;37.980;23.748;2023-02-08T10:05:58;6.95;;;3.03;;
18302;SDS011;9277;37.980;23.748;2023-02-08T10:08:27;4.00;;;2.28;;
18302;SDS011;9277;37.980;23.748;2023-02-08T10:10:55;5.45;;;2.53;;
18302;SDS011;9277;37.980;23.748;2023-02-08T10:13:29;3.55;;;2.38;;
18302;SDS011;9277;37.980;23.748;2023-02-08T10:15:59;2.67;;;2.40;;
18302;SDS011;9277;37.980;23.748;2023-02-08T10:18:33;3.75;;;2.05;;
18302;SDS011;9277;37.980;23.748;2023-02-08T10:21:06;3.05;;;1.95;;
18302;SDS011;9277;37.980;23.748;2023-02-08T10:23:45;3.33;;;2.15;;
18302;SDS011;9277;37.980;23.748;2023-02-08T10:26:17;3.90;;;2.08;;
18302;SDS011;9277;37.980;23.748;2023-02-08T10:31:30;5.03;;;2.30;;
18302;SDS011;9277;37.980;23.748;2023-02-08T10:34:03;4.93;;;2.40;;
18302;SDS011;9277;37.980;23.748;2023-02-08T10:36:34;2.58;;;2.22;;
18302;SDS011;9277;37.980;23.748;2023-02-08T10:39:10;7.80;;;2.38;;
18302;SDS011;9277;37.980;23.748;2023-02-08T10:41:40;4.13;;;2.22;;
18302;SDS011;9277;37.980;23.748;2023-02-08T10:44:08;4.50;;;2.70;;
18302;SDS011;9277;37.980;23.748;2023-02-08T10:46:40;2.70;;;2.15;;
18302;SDS011;9277;37.980;23.748;2023-02-08T10:49:10;3.00;;;2.10;;
18302;SDS011;9277;37.980;23.748;2023-02-08T10:51:39;5.78;;;2.25;;
18302;SDS011;9277;37.980;23.748;2023-02-08T10:54:08;2.20;;;2.05;;
18302;SDS011;9277;37.980;23.748;2023-02-08T10:56:42;2.95;;;2.25;;
18302;SDS011;9277;37.980;23.748;2023-02-08T10:59:14;3.17;;;2.25;;
18302;SDS011;9277;37.980;23.748;2023-02-08T11:01:42;2.88;;;2.13;;
18302;SDS011;9277;37.980;23.748;2023-02-08T11:04:10;2.33;;;2.10;;
18302;SDS011;9277;37.980;23.748;2023-02-08T11:06:37;4.35;;;2.38;;
18302;SDS011;9277;37.980;23.748;2023-02-08T11:09:04;12.48;;;2.88;;
18302;SDS011;9277;37.980;23.748;2023-02-08T11:11:35;4.40;;;2.20;;
18302;SDS011;9277;37.980;23.748;2023-02-08T11:14:08;3.03;;;2.25;;
18302;SDS011;9277;37.980;23.748;2023-02-08T11:16:36;6.78;;;3.13;;
18302;SDS011;9277;37.980;23.748;2023-02-08T11:19:03;5.38;;;2.35;;
18302;SDS011;9277;37.980;23.748;2023-02-08T11:21:32;3.78;;;2.30;;
18302;SDS011;9277;37.980;23.748;2023-02-08T11:24:02;5.53;;;2.78;;
18302;SDS011;9277;37.980;23.748;2023-02-08T11:26:30;6.05;;;2.70;;
18302;SDS011;9277;37.980;23.748;2023-02-08T11:28:58;3.63;;;2.83;;
18302;SDS011;9277;37.980;23.748;2023-02-08T11:31:27;4.47;;;2.65;;
18302;SDS011;9277;37.980;23.748;2023-02-08T11:33:58;4.25;;;2.30;;
18302;SDS011;9277;37.980;23.748;2023-02-08T11:36:25;2.90;;;2.13;;
18302;SDS011;9277;37.980;23.748;2023-02-08T11:38:52;3.50;;;2.22;;
18302;SDS011;9277;37.980;23.748;2023-02-08T11:41:19;3.00;;;2.67;;
18302;SDS011;9277;37.980;23.748;2023-02-08T11:43:55;2.72;;;2.20;;
18302;SDS011;9277;37.980;23.748;2023-02-08T11:46:23;3.33;;;2.47;;
18302;SDS011;9277;37.980;23.748;2023-02-08T11:48:52;4.65;;;2.20;;
18302;SDS011;9277;37.980;23.748;2023-02-08T11:51:24;3.35;;;2.25;;
18302;SDS011;9277;37.980;23.748;2023-02-08T11:53:52;3.13;;;2.40;;
18302;SDS011;9277;37.980;23.748;2023-02-08T11:56:19;2.67;;;2.00;;
18302;SDS011;9277;37.980;23.748;2023-02-08T11:58:59;2.97;;;2.38;;
18302;SDS011;9277;37.980;23.748;2023-02-08T12:01:28;3.55;;;2.22;;
18302;SDS011;9277;37.980;23.748;2023-02-08T12:03:56;4.00;;;3.00;;
18302;SDS011;9277;37.980;23.748;2023-02-08T12:09:06;6.60;;;2.13;;
18302;SDS011;9277;37.980;23.748;2023-02-08T12:11:36;4.50;;;2.70;;
18302;SDS011;9277;37.980;23.748;2023-02-08T12:14:19;4.75;;;2.53;;
18302;SDS011;9277;37.980;23.748;2023-02-08T12:17:02;3.90;;;2.90;;
18302;SDS011;9277;37.980;23.748;2023-02-08T12:22:15;4.25;;;2.20;;
18302;SDS011;9277;37.980;23.748;2023-02-08T12:24:46;3.60;;;2.10;;
18302;SDS011;9277;37.980;23.748;2023-02-08T12:27:18;2.72;;;2.22;;
18302;SDS011;9277;37.980;23.748;2023-02-08T12:29:53;2.83;;;1.88;;
18302;SDS011;9277;37.980;23.748;2023-02-08T12:32:29;8.15;;;2.40;;
18302;SDS011;9277;37.980;23.748;2023-02-08T12:35:03;3.33;;;2.38;;
18302;SDS011;9277;37.980;23.748;2023-02-08T12:37:38;3.53;;;2.47;;
18302;SDS011;9277;37.980;23.748;2023-02-08T12:40:30;3.30;;;2.47;;
18302;SDS011;9277;37.980;23.748;2023-02-08T12:43:19;2.78;;;2.33;;
18302;SDS011;9277;37.980;23.748;2023-02-08T12:45:58;4.75;;;2.40;;
18302;SDS011;9277;37.980;23.748;2023-02-08T12:48:35;3.67;;;2.25;;
18302;SDS011;9277;37.980;23.748;2023-02-08T12:51:06;3.08;;;2.20;;
18302;SDS011;9277;37.980;23.748;2023-02-08T12:53:38;2.88;;;2.15;;
18302;SDS011;9277;37.980;23.748;2023-02-08T12:56:09;4.65;;;2.30;;
18302;SDS011;9277;37.980;23.748;2023-02-08T12:58:37;2.38;;;2.08;;
18302;SDS011;9277;37.980;23.748;2023-02-08T13:01:06;3.17;;;2.20;;
18302;SDS011;9277;37.980;23.748;2023-02-08T13:03:35;3.08;;;2.40;;
18302;SDS011;9277;37.980;23.748;2023-02-08T13:06:04;3.28;;;2.50;;
18302;SDS011;9277;37.980;23.748;2023-02-08T13:08:32;2.72;;;2.20;;
18302;SDS011;9277;37.980;23.748;2023-02-08T13:11:03;3.80;;;2.30;;
18302;SDS011;9277;37.980;23.748;2023-02-08T13:13:32;3.35;;;2.33;;
18302;SDS011;9277;37.980;23.748;2023-02-08T13:16:00;2.00;;;1.77;;
18302;SDS011;9277;37.980;23.748;2023-02-08T13:18:30;5.03;;;2.30;;
18302;SDS011;9277;37.980;23.748;2023-02-08T13:20:59;3.28;;;2.28;;
18302;SDS011;9277;37.980;23.748;2023-02-08T13:23:27;4.47;;;2.17;;
18302;SDS011;9277;37.980;23.748;2023-02-08T13:25:56;7.10;;;2.85;;
18302;SDS011;9277;37.980;23.748;2023-02-08T13:28:25;3.05;;;2.10;;
18302;SDS011;9277;37.980;23.748;2023-02-08T13:30:53;6.43;;;2.47;;
18302;SDS011;9277;37.980;23.748;2023-02-08T13:33:23;4.78;;;2.58;;
18302;SDS011;9277;37.980;23.748;2023-02-08T13:35:51;2.70;;;2.08;;
18302;SDS011;9277;37.980;23.748;2023-02-08T13:38:24;2.72;;;1.73;;
18302;SDS011;9277;37.980;23.748;2023-02-08T13:41:00;2.00;;;1.80;;
18302;SDS011;9277;37.980;23.748;2023-02-08T13:43:31;2.60;;;2.28;;
18302;SDS011;9277;37.980;23.748;2023-02-08T13:46:00;3.85;;;2.00;;
18302;SDS011;9277;37.980;23.748;2023-02-08T13:48:27;3.72;;;2.40;;
18302;SDS011;9277;37.980;23.748;2023-02-08T13:51:06;2.90;;;2.53;;
18302;SDS011;9277;37.980;23.748;2023-02-08T13:54:08;7.00;;;2.38;;
18302;SDS011;9277;37.980;23.748;2023-02-08T13:56:36;1.80;;;1.70;;
18302;SDS011;9277;37.980;23.748;2023-02-08T13:59:08;4.80;;;2.63;;
18302;SDS011;9277;37.980;23.748;2023-02-08T14:04:36;3.13;;;2.30;;
18302;SDS011;9277;37.980;23.748;2023-02-08T14:07:04;3.25;;;1.90;;
18302;SDS011;9277;37.980;23.748;2023-02-08T14:09:38;3.35;;;2.03;;
18302;SDS011;9277;37.980;23.748;2023-02-08T14:12:11;3.55;;;2.33;;
18302;SDS011;9277;37.980;23.748;2023-02-08T14:14:40;2.53;;;2.15;;
18302;SDS011;9277;37.980;23.748;2023-02-08T14:17:07;4.18;;;2.03;;
18302;SDS011;9277;37.980;23.748;2023-02-08T14:19:35;3.38;;;1.67;;
18302;SDS011;9277;37.980;23.748;2023-02-08T14:22:03;2.25;;;1.77;;
18302;SDS011;9277;37.980;23.748;2023-02-08T14:24:31;2.45;;;1.80;;
18302;SDS011;9277;37.980;23.748;2023-02-08T14:27:05;2.78;;;2.30;;
18302;SDS011;9277;37.980;23.748;2023-02-08T14:29:33;2.47;;;1.70;;
18302;SDS011;9277;37.980;23.748;2023-02-08T14:32:01;2.70;;;2.00;;
18302;SDS011;9277;37.980;23.748;2023-02-08T14:34:30;4.38;;;1.92;;
18302;SDS011;9277;37.980;23.748;2023-02-08T14:36:59;2.53;;;2.33;;
18302;SDS011;9277;37.980;23.748;2023-02-08T14:39:28;1.95;;;1.83;;
18302;SDS011;9277;37.980;23.748;2023-02-08T14:41:55;3.67;;;2.13;;
18302;SDS011;9277;37.980;23.748;2023-02-08T14:50:10;2.65;;;2.13;;
18302;SDS011;9277;37.980;23.748;2023-02-08T14:52:39;4.63;;;2.00;;
18302;SDS011;9277;37.980;23.748;2023-02-08T14:55:11;2.88;;;2.28;;
18302;SDS011;9277;37.980;23.748;2023-02-08T14:57:39;2.83;;;2.22;;
18302;SDS011;9277;37.980;23.748;2023-02-08T15:00:07;4.03;;;2.25;;
18302;SDS011;9277;37.980;23.748;2023-02-08T15:02:42;2.70;;;2.15;;
18302;SDS011;9277;37.980;23.748;2023-02-08T15:05:19;2.13;;;1.90;;
18302;SDS011;9277;37.980;23.748;2023-02-08T15:07:46;3.30;;;2.33;;
18302;SDS011;9277;37.980;23.748;2023-02-08T15:10:15;2.95;;;2.15;;
18302;SDS011;9277;37.980;23.748;2023-02-08T15:12:43;6.78;;;3.17;;
18302;SDS011;9277;37.980;23.748;2023-02-08T15:15:20;3.90;;;1.95;;
18302;SDS011;9277;37.980;23.748;2023-02-08T15:17:48;3.95;;;2.38;;
18302;SDS011;9277;37.980;23.748;2023-02-08T15:20:17;2.58;;;2.10;;
18302;SDS011;9277;37.980;23.748;2023-02-08T15:22:46;2.30;;;2.10;;
18302;SDS011;9277;37.980;23.748;2023-02-08T15:25:19;5.10;;;1.90;;
18302;SDS011;9277;37.980;23.748;2023-02-08T15:27:47;3.10;;;2.28;;